createdAt,value
2023-07-24T00:00:04.346Z,55.37
2023-07-24T00:03:07.534Z,55.48
2023-07-24T00:06:10.329Z,55.77
2023-07-24T00:09:12.945Z,55.87
2023-07-24T00:12:19.085Z,55.60
2023-07-24T00:15:21.866Z,55.88
2023-07-24T00:18:24.264Z,55.79
2023-07-24T00:21:27.666Z,55.61
2023-07-24T00:24:32.250Z,55.95
2023-07-24T00:27:35.794Z,55.73
2023-07-24T00:30:38.673Z,55.98
2023-07-24T00:33:41.134Z,55.87
2023-07-24T00:36:43.634Z,55.74
2023-07-24T00:39:47.302Z,55.93
2023-07-24T00:42:50.014Z,55.85
2023-07-24T00:45:52.774Z,55.89
2023-07-24T00:48:55.846Z,55.79
2023-07-24T00:51:58.712Z,55.89
2023-07-24T00:55:01.951Z,55.98
2023-07-24T00:58:06.557Z,55.89
2023-07-24T01:01:11.662Z,56.00
2023-07-24T01:04:15.672Z,55.89
2023-07-24T01:07:21.733Z,55.67
2023-07-24T01:10:24.469Z,55.78
2023-07-24T01:13:30.330Z,56.04
2023-07-24T01:16:38.116Z,55.76
2023-07-24T01:19:48.867Z,55.93
2023-07-24T01:23:12.792Z,55.91
2023-07-24T01:26:16.047Z,55.96
2023-07-24T01:29:20.076Z,56.02
2023-07-24T01:32:22.664Z,55.84
2023-07-24T01:35:26.297Z,55.63
2023-07-24T01:38:29.721Z,56.08
2023-07-24T01:41:33.111Z,55.83
2023-07-24T01:44:36.006Z,55.88
2023-07-24T01:47:41.409Z,55.82
2023-07-24T01:50:44.500Z,56.05
2023-07-24T01:53:47.161Z,56.20
2023-07-24T01:56:49.558Z,56.18
2023-07-24T01:59:52.265Z,55.97
2023-07-24T02:02:54.998Z,56.24
2023-07-24T02:05:57.826Z,55.92
2023-07-24T02:09:00.712Z,56.03
2023-07-24T02:12:03.587Z,55.76
2023-07-24T02:15:06.817Z,55.93
2023-07-24T02:18:09.628Z,56.17
2023-07-24T02:21:12.258Z,56.23
2023-07-24T02:24:14.714Z,55.83
2023-07-24T02:27:32.752Z,56.27
2023-07-24T02:30:39.383Z,56.11
2023-07-24T02:33:42.007Z,56.03
2023-07-24T02:36:44.797Z,56.26
2023-07-24T02:39:47.525Z,56.00
2023-07-24T02:42:49.994Z,56.13
2023-07-24T02:45:52.511Z,56.20
2023-07-24T02:48:55.754Z,56.17
2023-07-24T02:52:00.984Z,56.26
2023-07-24T02:55:03.869Z,56.37
2023-07-24T02:58:07.098Z,56.16
2023-07-24T03:01:09.679Z,56.22
2023-07-24T03:04:12.159Z,56.32
2023-07-24T03:07:14.582Z,56.18
2023-07-24T03:10:17.155Z,56.55
2023-07-24T03:13:19.736Z,56.52
2023-07-24T03:16:22.512Z,56.37
2023-07-24T03:19:25.034Z,56.50
2023-07-24T03:22:27.964Z,56.32
2023-07-24T03:25:32.844Z,56.34
2023-07-24T03:28:35.436Z,56.51
2023-07-24T03:31:38.807Z,56.37
2023-07-24T03:34:44.449Z,56.39
2023-07-24T03:37:46.967Z,56.35
2023-07-24T03:40:49.709Z,56.30
2023-07-24T03:43:55.781Z,56.38
2023-07-24T03:46:58.613Z,56.08
2023-07-24T03:50:01.478Z,56.44
2023-07-24T03:53:04.335Z,56.21
2023-07-24T03:56:07.006Z,56.25
2023-07-24T03:59:09.861Z,56.10
2023-07-24T04:02:12.583Z,56.36
2023-07-24T04:05:15.049Z,56.25
2023-07-24T04:08:17.812Z,56.07
2023-07-24T04:11:20.470Z,56.21
2023-07-24T04:14:23.455Z,56.06
2023-07-24T04:17:26.227Z,55.85
2023-07-24T04:20:28.729Z,56.07
2023-07-24T04:23:31.422Z,56.07
2023-07-24T04:26:36.185Z,56.37
2023-07-24T04:29:40.174Z,55.89
2023-07-24T04:32:43.165Z,55.91
2023-07-24T04:35:49.733Z,55.97
2023-07-24T04:38:52.168Z,55.86
2023-07-24T04:41:54.541Z,55.98
2023-07-24T04:44:56.890Z,55.91
2023-07-24T04:47:59.292Z,55.63
2023-07-24T04:51:02.068Z,55.50
2023-07-24T04:54:04.628Z,55.50
2023-07-24T04:57:07.023Z,55.33
2023-07-24T05:00:10.165Z,55.04
2023-07-24T05:03:13.159Z,55.34
2023-07-24T05:06:15.757Z,54.92
2023-07-24T05:09:18.149Z,54.81
2023-07-24T05:12:21.795Z,54.49
2023-07-24T05:15:25.530Z,54.82
2023-07-24T05:18:28.145Z,54.52
2023-07-24T05:21:30.723Z,54.06
2023-07-24T05:24:33.439Z,54.20
2023-07-24T05:27:36.782Z,53.79
2023-07-24T05:30:39.589Z,53.60
2023-07-24T05:33:42.227Z,53.48
2023-07-24T05:36:44.644Z,53.48
2023-07-24T05:39:47.359Z,53.35
2023-07-24T05:42:50.163Z,52.76
2023-07-24T05:45:53.453Z,52.74
2023-07-24T05:48:57.723Z,53.17
2023-07-24T05:52:00.208Z,53.06
2023-07-24T05:55:02.904Z,52.54
2023-07-24T05:58:05.520Z,52.78
2023-07-24T06:01:11.327Z,52.49
2023-07-24T06:04:13.920Z,52.33
2023-07-24T06:07:16.869Z,52.46
2023-07-24T06:10:19.614Z,52.02
2023-07-24T06:13:23.492Z,52.00
2023-07-24T06:16:26.129Z,51.57
2023-07-24T06:19:28.513Z,51.79
2023-07-24T06:22:31.257Z,51.36
2023-07-24T06:25:34.047Z,51.70
2023-07-24T06:28:36.420Z,51.81
2023-07-24T06:31:38.982Z,51.69
2023-07-24T06:34:41.494Z,51.35
2023-07-24T06:37:43.961Z,51.13
2023-07-24T06:40:47.716Z,51.27
2023-07-24T06:43:50.926Z,50.94
2023-07-24T06:46:53.342Z,50.90
2023-07-24T06:49:56.056Z,50.27
2023-07-24T06:52:59.024Z,49.59
2023-07-24T06:56:01.595Z,49.69
2023-07-24T06:59:04.476Z,49.45
2023-07-24T07:02:10.247Z,48.75
2023-07-24T07:05:14.011Z,48.49
2023-07-24T07:08:16.693Z,48.19
2023-07-24T07:11:19.189Z,47.78
2023-07-24T07:14:23.824Z,47.51
2023-07-24T07:17:26.501Z,47.66
2023-07-24T07:20:31.048Z,47.46
2023-07-24T07:23:34.858Z,47.05
2023-07-24T07:26:41.158Z,46.93
2023-07-24T07:29:45.187Z,46.87
2023-07-24T07:32:49.781Z,46.63
2023-07-24T07:35:52.967Z,46.56
2023-07-24T07:38:55.963Z,46.40
2023-07-24T07:42:12.125Z,46.50
2023-07-24T07:45:20.240Z,46.24
2023-07-24T07:48:23.679Z,46.53
2023-07-24T07:51:27.379Z,46.11
2023-07-24T07:54:30.538Z,46.35
2023-07-24T07:57:38.422Z,46.15
2023-07-24T08:00:42.185Z,46.18
2023-07-24T08:03:48.573Z,46.63
2023-07-24T08:06:51.702Z,46.82
2023-07-24T08:09:58.153Z,46.93
2023-07-24T08:13:00.989Z,46.94
2023-07-24T08:16:04.631Z,46.68
2023-07-24T08:19:07.610Z,46.85
2023-07-24T08:22:10.673Z,46.84
2023-07-24T08:25:14.691Z,47.16
2023-07-24T08:28:17.744Z,47.22
2023-07-24T08:31:20.719Z,47.57
2023-07-24T08:34:23.833Z,47.77
2023-07-24T08:37:26.419Z,48.25
2023-07-24T08:40:29.206Z,48.14
2023-07-24T08:43:32.767Z,48.26
2023-07-24T08:46:38.805Z,48.60
2023-07-24T08:49:47.193Z,48.54
2023-07-24T08:52:50.057Z,48.37
2023-07-24T08:55:54.642Z,48.47
2023-07-24T08:58:57.629Z,48.85
2023-07-24T09:02:00.021Z,48.63
2023-07-24T09:05:02.908Z,48.62
2023-07-24T09:08:06.042Z,48.81
2023-07-24T09:11:12.299Z,48.68
2023-07-24T09:14:31.119Z,49.24
2023-07-24T09:17:35.231Z,48.92
2023-07-24T09:20:43.504Z,49.37
2023-07-24T09:23:46.429Z,48.92
2023-07-24T09:26:58.414Z,49.35
2023-07-24T09:30:01.789Z,49.25
2023-07-24T09:33:04.991Z,49.09
2023-07-24T09:36:09.737Z,49.09
2023-07-24T09:39:12.976Z,49.21
2023-07-24T09:42:16.245Z,49.52
2023-07-24T09:45:22.916Z,49.64
2023-07-24T09:51:35.650Z,49.33
2023-07-24T09:54:46.447Z,49.33
2023-07-24T09:57:49.946Z,49.87
2023-07-24T10:00:53.629Z,49.81
2023-07-24T10:03:57.434Z,49.39
2023-07-24T10:07:00.062Z,49.95
2023-07-24T10:10:03.483Z,49.62
2023-07-24T10:13:06.915Z,49.57
2023-07-24T10:16:09.476Z,49.60
2023-07-24T10:19:17.393Z,49.89
2023-07-24T10:22:21.515Z,49.99
2023-07-24T10:25:32.339Z,49.92
2023-07-24T10:28:42.592Z,49.64
2023-07-24T10:31:54.424Z,50.22
2023-07-24T10:35:07.802Z,50.04
2023-07-24T10:38:12.663Z,49.84
2023-07-24T10:41:15.877Z,50.04
2023-07-24T10:44:18.745Z,50.17
2023-07-24T10:47:22.076Z,50.22
2023-07-24T10:50:24.838Z,50.27
2023-07-24T10:53:28.013Z,50.43
2023-07-24T10:56:30.706Z,49.93
2023-07-24T10:59:40.404Z,50.42
2023-07-24T11:02:42.887Z,50.35
2023-07-24T11:05:47.248Z,50.23
2023-07-24T11:09:00.635Z,50.38
2023-07-24T11:12:17.302Z,50.10
2023-07-24T11:15:27.164Z,50.25
2023-07-24T11:18:40.598Z,50.47
2023-07-24T11:21:54.002Z,50.29
2023-07-24T11:24:58.316Z,50.30
2023-07-24T11:28:01.496Z,50.51
2023-07-24T11:31:04.688Z,50.07
2023-07-24T11:34:07.805Z,50.14
2023-07-24T11:37:13.222Z,50.35
2023-07-24T11:40:16.881Z,50.35
2023-07-24T11:43:24.121Z,50.29
2023-07-24T11:46:33.397Z,50.58
2023-07-24T11:49:48.642Z,50.36
2023-07-24T11:52:54.453Z,50.06
2023-07-24T11:55:58.640Z,50.20
2023-07-24T11:59:21.363Z,50.47
2023-07-24T12:02:24.380Z,50.14
2023-07-24T12:05:34.118Z,50.12
2023-07-24T12:08:39.648Z,50.46
2023-07-24T12:11:46.612Z,50.21
2023-07-24T12:14:49.386Z,50.44
2023-07-24T12:17:52.116Z,50.27
2023-07-24T12:20:58.590Z,50.65
2023-07-24T12:24:01.890Z,50.27
2023-07-24T12:27:04.927Z,50.28
2023-07-24T12:30:08.994Z,50.22
2023-07-24T12:33:12.045Z,50.56
2023-07-24T12:36:14.626Z,50.73
2023-07-24T12:39:17.731Z,50.53
2023-07-24T12:42:20.445Z,50.71
2023-07-24T12:45:26.086Z,50.63
2023-07-24T12:48:28.952Z,50.42
2023-07-24T12:51:31.774Z,50.04
2023-07-24T12:54:54.767Z,50.60
2023-07-24T12:57:58.645Z,50.70
2023-07-24T13:01:01.581Z,50.38
2023-07-24T13:04:04.917Z,50.36
2023-07-24T13:07:07.647Z,50.65
2023-07-24T13:10:11.550Z,50.53
2023-07-24T13:13:16.840Z,50.75
2023-07-24T13:16:19.565Z,50.38
2023-07-24T13:19:22.194Z,50.75
2023-07-24T13:22:25.190Z,50.74
2023-07-24T13:25:27.995Z,50.86
2023-07-24T13:28:30.668Z,50.56
2023-07-24T13:31:34.306Z,50.60
2023-07-24T13:34:37.174Z,50.71
2023-07-24T13:37:40.177Z,50.89
2023-07-24T13:40:42.869Z,50.95
2023-07-24T13:43:45.704Z,50.88
2023-07-24T13:46:49.377Z,50.93
2023-07-24T13:49:51.944Z,50.86
2023-07-24T13:52:54.483Z,50.68
2023-07-24T13:55:57.846Z,50.50
2023-07-24T13:59:00.388Z,50.61
2023-07-24T14:02:02.992Z,50.77
2023-07-24T14:05:05.881Z,50.65
2023-07-24T14:08:10.695Z,50.72
2023-07-24T14:11:13.365Z,50.92
2023-07-24T14:14:17.259Z,50.80
2023-07-24T14:17:20.294Z,50.72
2023-07-24T14:20:22.791Z,50.70
2023-07-24T14:23:25.957Z,50.51
2023-07-24T14:26:28.928Z,51.06
2023-07-24T14:29:32.128Z,50.97
2023-07-24T14:32:34.771Z,50.44
2023-07-24T14:35:37.554Z,50.90
2023-07-24T14:38:40.264Z,50.98
2023-07-24T14:41:42.638Z,50.85
2023-07-24T14:44:45.086Z,50.72
2023-07-24T14:47:47.827Z,50.62
2023-07-24T14:50:50.523Z,50.95
2023-07-24T14:53:52.901Z,51.09
2023-07-24T14:57:01.997Z,50.55
2023-07-24T15:00:13.985Z,50.93
2023-07-24T15:03:16.438Z,50.81
2023-07-24T15:06:19.184Z,51.09
2023-07-24T15:09:21.821Z,50.71
2023-07-24T15:12:26.308Z,51.08
2023-07-24T15:15:28.818Z,51.07
2023-07-24T15:18:31.706Z,50.68
2023-07-24T15:21:34.332Z,50.48
2023-07-24T15:24:36.787Z,50.61
2023-07-24T15:27:39.260Z,50.82
2023-07-24T15:30:41.691Z,50.63
2023-07-24T15:33:44.152Z,51.29
2023-07-24T15:36:46.688Z,50.70
2023-07-24T15:39:49.654Z,50.67
2023-07-24T15:42:52.604Z,51.22
2023-07-24T15:45:55.627Z,51.01
2023-07-24T15:48:58.365Z,51.13
2023-07-24T15:52:01.626Z,50.75
2023-07-24T15:55:04.619Z,51.12
2023-07-24T15:58:12.705Z,51.00
2023-07-24T16:01:15.479Z,50.73
2023-07-24T16:04:19.821Z,50.85
2023-07-24T16:07:23.772Z,50.66
2023-07-24T16:10:27.153Z,50.94
2023-07-24T16:13:30.155Z,50.84
2023-07-24T16:16:34.076Z,50.68
2023-07-24T16:19:36.956Z,50.99
2023-07-24T16:22:39.596Z,50.69
2023-07-24T16:25:42.163Z,51.24
2023-07-24T16:28:44.507Z,50.74
2023-07-24T16:31:46.961Z,51.15
2023-07-24T16:34:49.892Z,51.25
2023-07-24T16:38:00.235Z,51.17
2023-07-24T16:41:04.404Z,50.99
2023-07-24T16:44:09.042Z,51.10
2023-07-24T16:47:12.392Z,51.14
2023-07-24T16:50:15.424Z,50.98
2023-07-24T16:53:22.064Z,50.90
2023-07-24T16:56:27.890Z,50.90
2023-07-24T16:59:31.566Z,50.97
2023-07-24T17:02:38.747Z,51.10
2023-07-24T17:05:41.645Z,51.25
2023-07-24T17:08:44.874Z,51.36
2023-07-24T17:11:48.296Z,51.04
2023-07-24T17:14:52.087Z,51.03
2023-07-24T17:17:54.494Z,51.33
2023-07-24T17:20:57.718Z,51.36
2023-07-24T17:24:00.519Z,50.93
2023-07-24T17:27:03.418Z,51.50
2023-07-24T17:30:06.858Z,51.12
2023-07-24T17:33:09.346Z,51.32
2023-07-24T17:36:12.333Z,51.31
2023-07-24T17:39:17.987Z,51.33
2023-07-24T17:42:21.320Z,51.46
2023-07-24T17:45:24.097Z,51.40
2023-07-24T17:48:29.598Z,51.04
2023-07-24T17:51:32.463Z,51.07
2023-07-24T17:54:36.160Z,51.39
2023-07-24T17:57:39.251Z,51.36
2023-07-24T18:00:46.051Z,51.38
2023-07-24T18:03:49.666Z,51.46
2023-07-24T18:06:52.366Z,51.13
2023-07-24T18:09:54.705Z,51.48
2023-07-24T18:12:57.597Z,51.34
2023-07-24T18:16:00.141Z,51.21
2023-07-24T18:19:05.328Z,51.41
2023-07-24T18:22:07.972Z,51.21
2023-07-24T18:25:11.441Z,51.53
2023-07-24T18:28:13.852Z,51.51
2023-07-24T18:31:16.896Z,51.46
2023-07-24T18:34:20.664Z,51.18
2023-07-24T18:37:26.046Z,51.49
2023-07-24T18:40:28.849Z,51.54
2023-07-24T18:43:31.470Z,51.23
2023-07-24T18:46:34.971Z,51.64
2023-07-24T18:49:37.696Z,51.29
2023-07-24T18:52:46.598Z,51.31
2023-07-24T18:55:50.982Z,51.67
2023-07-24T18:58:54.068Z,51.37
2023-07-24T19:01:58.123Z,51.28
2023-07-24T19:05:00.640Z,51.25
2023-07-24T19:08:08.372Z,51.23
2023-07-24T19:11:11.789Z,51.36
2023-07-24T19:14:14.583Z,51.64
2023-07-24T19:17:18.319Z,51.58
2023-07-24T19:20:21.197Z,51.41
2023-07-24T19:23:24.266Z,51.21
2023-07-24T19:26:28.264Z,51.71
2023-07-24T19:29:31.007Z,51.48
2023-07-24T19:32:37.169Z,51.72
2023-07-24T19:35:42.498Z,51.69
2023-07-24T19:38:45.550Z,51.50
2023-07-24T19:41:48.428Z,51.75
2023-07-24T19:44:51.328Z,51.48
2023-07-24T19:47:54.103Z,51.71
2023-07-24T19:50:57.366Z,51.67
2023-07-24T19:54:00.317Z,51.61
2023-07-24T19:57:03.037Z,51.43
2023-07-24T20:00:06.026Z,51.35
2023-07-24T20:03:09.494Z,51.69
2023-07-24T20:06:12.780Z,51.67
2023-07-24T20:09:15.208Z,51.76
2023-07-24T20:12:18.835Z,51.83
2023-07-24T20:15:21.289Z,51.75
2023-07-24T20:18:23.699Z,51.66
2023-07-24T20:21:26.461Z,51.67
2023-07-24T20:24:29.040Z,51.85
2023-07-24T20:27:31.871Z,51.46
2023-07-24T20:30:35.436Z,51.96
2023-07-24T20:33:38.289Z,51.45
2023-07-24T20:36:41.315Z,51.86
2023-07-24T20:39:47.258Z,51.87
2023-07-24T20:42:52.737Z,51.61
2023-07-24T20:45:55.978Z,51.50
2023-07-24T20:49:00.661Z,51.44
2023-07-24T20:52:06.835Z,51.58
2023-07-24T20:55:09.537Z,51.56
2023-07-24T20:58:11.890Z,51.49
2023-07-24T21:01:15.040Z,51.63
2023-07-24T21:04:18.381Z,51.67
2023-07-24T21:07:22.001Z,51.86
2023-07-24T21:10:25.336Z,51.54
2023-07-24T21:13:27.960Z,51.94
2023-07-24T21:16:30.398Z,51.48
2023-07-24T21:19:32.866Z,52.00
2023-07-24T21:22:35.598Z,51.77
2023-07-24T21:25:38.493Z,51.55
2023-07-24T21:28:41.648Z,51.50
2023-07-24T21:31:44.777Z,51.65
2023-07-24T21:34:47.777Z,51.98
2023-07-24T21:37:51.114Z,51.85
2023-07-24T21:40:53.845Z,51.85
2023-07-24T21:43:57.116Z,51.89
2023-07-24T21:46:59.966Z,51.56
2023-07-24T21:50:02.734Z,51.55
2023-07-24T21:53:08.296Z,51.89
2023-07-24T21:56:13.738Z,51.69
2023-07-24T21:59:17.225Z,51.74
2023-07-24T22:02:20.117Z,51.71
2023-07-24T22:05:22.955Z,51.75
2023-07-24T22:08:26.080Z,51.95
2023-07-24T22:11:29.684Z,51.69
2023-07-24T22:14:32.481Z,52.03
2023-07-24T22:17:35.118Z,52.06
2023-07-24T22:20:41.926Z,52.11
2023-07-24T22:23:44.860Z,51.94
2023-07-24T22:26:47.984Z,51.75
2023-07-24T22:29:50.805Z,52.09
2023-07-24T22:32:53.961Z,52.13
2023-07-24T22:35:59.769Z,51.86
2023-07-24T22:39:06.043Z,52.09
2023-07-24T22:42:09.310Z,52.08
2023-07-24T22:45:12.038Z,51.83
2023-07-24T22:48:16.128Z,51.73
2023-07-24T22:51:19.294Z,52.07
2023-07-24T22:54:22.380Z,51.56
2023-07-24T22:57:25.041Z,51.93
2023-07-24T23:00:27.655Z,52.04
2023-07-24T23:03:30.919Z,52.22
2023-07-24T23:06:33.529Z,52.09
2023-07-24T23:09:36.139Z,52.13
2023-07-24T23:12:38.884Z,52.04
2023-07-24T23:15:42.203Z,52.14
2023-07-24T23:18:45.074Z,51.62
2023-07-24T23:21:47.519Z,51.68
2023-07-24T23:24:53.745Z,51.75
2023-07-24T23:27:56.419Z,51.82
2023-07-24T23:31:02.372Z,51.57
2023-07-24T23:34:06.089Z,51.52
2023-07-24T23:37:08.590Z,51.77
2023-07-24T23:40:12.024Z,51.56
2023-07-24T23:43:14.558Z,52.04
2023-07-24T23:46:17.658Z,52.15
2023-07-24T23:49:20.839Z,51.85
2023-07-24T23:52:23.771Z,52.09
2023-07-24T23:55:26.482Z,52.05
2023-07-24T23:58:29.032Z,51.73
